Time;durP1;ratioP1;P1;durP2;ratioP2;P2;SDS_P1;SDS_P2;PMS_P1;PMS_P2;Temp;Humidity;BMP_temperature;BMP_pressure;BME280_temperature;BME280_humidity;BME280_pressure;Samples;Min_cycle;Max_cycle;Signal;HPM_P1;HPM_P2
2024/01/13 00:02:24;;;;;;;7.93;4.10;;;;;;;4.85;87.39;102645.81;7395605;19;20014;-61
2024/01/13 00:04:52;;;;;;;9.98;4.07;;;;;;;4.80;87.23;102651.13;7394080;19;20011;-61
2024/01/13 00:07:23;;;;;;;8.98;4.40;;;;;;;4.85;87.18;102640.56;7395761;19;20014;-61
2024/01/13 00:09:51;;;;;;;7.97;4.00;;;;;;;4.81;87.42;102649.38;7392301;19;20031;-61
2024/01/13 00:12:19;;;;;;;8.65;4.10;;;;;;;4.80;87.63;102638.00;7394454;19;20027;-61
2024/01/13 00:14:47;;;;;;;6.50;3.25;;;;;;;4.75;87.44;102639.84;7395649;19;20011;-59
2024/01/13 00:17:15;;;;;;;6.80;3.90;;;;;;;4.82;87.25;102636.22;7392897;19;20018;-60
2024/01/13 00:19:43;;;;;;;8.60;3.63;;;;;;;4.87;87.27;102634.38;7391891;19;20018;-60
2024/01/13 00:22:11;;;;;;;7.35;4.00;;;;;;;4.86;87.12;102632.63;7394917;19;20039;-60
2024/01/13 00:24:39;;;;;;;10.07;4.50;;;;;;;4.77;87.03;102638.06;7393944;19;20081;-61
2024/01/13 00:27:07;;;;;;;7.93;4.10;;;;;;;4.72;87.74;102633.78;7395405;19;20019;-60
2024/01/13 00:29:35;;;;;;;8.18;4.13;;;;;;;4.76;87.68;102630.22;7393226;19;20138;-60
2024/01/13 00:32:03;;;;;;;7.93;3.50;;;;;;;4.80;87.26;102619.63;7395064;19;20025;-60
2024/01/13 00:34:31;;;;;;;8.50;3.53;;;;;;;4.73;87.53;102615.41;7394748;19;20368;-61
2024/01/13 00:36:59;;;;;;;5.95;3.20;;;;;;;4.77;87.16;102610.94;7394550;19;20014;-62
2024/01/13 00:39:28;;;;;;;4.55;2.50;;;;;;;4.84;86.75;102620.44;7393156;19;20024;-59
2024/01/13 00:41:56;;;;;;;6.40;2.60;;;;;;;4.83;86.61;102618.72;7395185;19;20023;-59
2024/01/13 00:44:24;;;;;;;6.20;2.78;;;;;;;4.79;86.54;102593.41;7393915;19;20035;-60
2024/01/13 00:46:52;;;;;;;4.72;2.50;;;;;;;4.82;86.00;102596.84;7394347;19;20496;-59
2024/01/13 00:49:20;;;;;;;13.10;4.80;;;;;;;4.83;86.19;102602.97;7392745;19;20032;-58
2024/01/13 00:51:48;;;;;;;8.65;3.70;;;;;;;4.84;85.78;102591.56;7394760;19;20074;-57
2024/01/13 00:54:16;;;;;;;7.07;2.95;;;;;;;4.79;86.14;102586.41;7394427;19;20015;-58
2024/01/13 00:56:44;;;;;;;8.73;3.47;;;;;;;4.78;85.85;102589.06;7393720;19;20381;-57
2024/01/13 00:59:12;;;;;;;5.82;2.20;;;;;;;4.82;85.80;102575.84;7392333;19;20050;-59
2024/01/13 01:01:43;;;;;;;6.63;2.10;;;;;;;4.83;85.62;102579.34;7393645;19;20056;-59
2024/01/13 01:04:11;;;;;;;5.03;2.20;;;;;;;4.89;85.84;102568.72;7392574;19;20029;-59
2024/01/13 01:06:39;;;;;;;4.93;2.28;;;;;;;4.89;85.59;102577.47;7394240;19;20034;-58
2024/01/13 01:09:07;;;;;;;6.13;2.42;;;;;;;4.77;86.08;102575.09;7393073;19;20010;-58
2024/01/13 01:11:36;;;;;;;5.13;2.28;;;;;;;4.75;86.60;102574.25;7394379;19;20026;-57
2024/01/13 01:14:03;;;;;;;5.88;2.40;;;;;;;4.69;86.76;102566.47;7394316;19;20014;-57
2024/01/13 01:16:31;;;;;;;6.90;2.75;;;;;;;4.80;86.52;102569.75;7395277;19;20015;-60
2024/01/13 01:18:59;;;;;;;5.53;2.30;;;;;;;4.80;86.20;102559.25;7393451;19;20026;-60
2024/01/13 01:21:28;;;;;;;6.13;2.60;;;;;;;4.74;86.52;102569.03;7395528;19;20018;-60
2024/01/13 01:23:56;;;;;;;5.00;2.50;;;;;;;4.64;86.61;102558.72;7395162;19;20027;-60
2024/01/13 01:26:24;;;;;;;6.95;2.83;;;;;;;4.77;86.67;102555.81;7393262;19;20104;-61
2024/01/13 01:28:52;;;;;;;4.63;2.38;;;;;;;4.78;86.50;102547.09;7391616;19;20022;-60
2024/01/13 01:31:20;;;;;;;4.65;2.78;;;;;;;4.79;85.89;102546.19;7393454;19;20014;-61
2024/01/13 01:33:48;;;;;;;5.70;2.65;;;;;;;4.80;85.95;102534.78;7394173;19;20078;-59
2024/01/13 01:36:17;;;;;;;6.93;2.60;;;;;;;4.76;85.64;102539.22;7392728;19;20427;-60
2024/01/13 01:38:45;;;;;;;7.47;2.90;;;;;;;4.70;85.62;102528.88;7394437;19;20090;-60
2024/01/13 01:41:14;;;;;;;10.45;3.10;;;;;;;4.72;85.73;102531.44;7394965;19;20042;-61
2024/01/13 01:43:44;;;;;;;9.02;2.90;;;;;;;4.70;85.60;102523.63;7393803;19;20356;-60
2024/01/13 01:46:13;;;;;;;6.50;2.95;;;;;;;4.73;85.84;102530.53;7393792;19;20348;-61
2024/01/13 01:48:43;;;;;;;14.32;7.60;;;;;;;4.72;85.82;102526.22;7395127;19;20029;-61
2024/01/13 01:51:14;;;;;;;15.13;7.43;;;;;;;4.67;85.77;102526.31;7395733;19;20122;-61
2024/01/13 01:53:45;;;;;;;8.40;3.08;;;;;;;4.70;85.93;102528.00;7394955;19;20054;-62
2024/01/13 01:56:17;;;;;;;7.47;3.00;;;;;;;4.68;85.78;102511.41;7392737;19;20030;-61
2024/01/13 01:58:46;;;;;;;5.88;2.80;;;;;;;4.72;85.81;102515.72;7392986;19;20021;-59
2024/01/13 02:01:16;;;;;;;6.40;2.90;;;;;;;4.74;85.54;102506.06;7396640;19;20039;-60
2024/01/13 02:03:46;;;;;;;6.72;3.05;;;;;;;4.72;85.44;102507.84;7397532;19;20038;-59
2024/01/13 02:06:15;;;;;;;9.25;3.08;;;;;;;4.74;85.77;102504.28;7392142;19;20014;-63
2024/01/13 02:08:45;;;;;;;8.10;2.92;;;;;;;4.70;85.73;102502.63;7392931;19;20095;-63
2024/01/13 02:11:13;;;;;;;6.47;2.50;;;;;;;4.78;85.28;102494.59;7392180;19;20022;-63
2024/01/13 02:13:45;;;;;;;7.72;2.55;;;;;;;4.77;85.72;102488.50;7391926;19;20039;-63
2024/01/13 02:16:15;;;;;;;5.70;2.60;;;;;;;4.72;85.85;102487.69;7390052;19;20039;-64
2024/01/13 02:18:44;;;;;;;5.68;2.40;;;;;;;4.50;86.04;102466.31;7392497;19;20019;-64
2024/01/13 02:21:13;;;;;;;6.15;2.63;;;;;;;4.60;86.29;102486.19;7391227;19;20036;-64
2024/01/13 02:23:43;;;;;;;5.78;2.60;;;;;;;4.61;86.40;102474.81;7391805;19;20026;-64
2024/01/13 02:26:12;;;;;;;5.85;2.60;;;;;;;4.66;86.21;102464.25;7389979;19;20010;-64
2024/01/13 02:28:40;;;;;;;6.63;2.63;;;;;;;4.66;86.32;102464.25;7390769;19;20010;-64
2024/01/13 02:31:16;;;;;;;9.65;2.65;;;;;;;4.67;85.92;102463.34;7390810;19;20018;-64
2024/01/13 02:33:49;;;;;;;;;;;;;;;4.65;85.85;102470.34;7391695;19;20035;-64
2024/01/13 02:36:19;;;;;;;6.80;2.40;;;;;;;4.56;86.33;102455.69;7389463;19;19943;-64
2024/01/13 02:38:47;;;;;;;6.95;2.40;;;;;;;4.65;85.78;102459.88;7390707;19;20018;-64
2024/01/13 02:41:15;;;;;;;5.55;2.60;;;;;;;4.68;85.74;102443.19;7397917;19;20026;-62
2024/01/13 02:43:43;;;;;;;11.77;2.55;;;;;;;4.68;85.46;102451.06;7398302;19;20046;-61
2024/01/13 02:46:11;;;;;;;7.63;2.88;;;;;;;4.67;85.59;102451.97;7395063;19;20047;-63
2024/01/13 02:48:42;;;;;;;5.60;2.50;;;;;;;4.72;85.74;102450.09;7398869;19;20027;-63
2024/01/13 02:51:14;;;;;;;8.15;2.35;;;;;;;4.69;85.92;102451.03;7398146;19;20506;-62
2024/01/13 02:53:45;;;;;;;8.13;2.80;;;;;;;4.61;85.94;102435.44;7398475;19;20043;-62
2024/01/13 02:56:13;;;;;;;4.75;2.35;;;;;;;4.64;85.96;102434.53;7398815;19;20055;-63
2024/01/13 02:58:41;;;;;;;11.30;2.72;;;;;;;4.71;85.98;102423.00;7396318;19;20039;-63
2024/01/13 03:01:14;;;;;;;7.93;2.55;;;;;;;4.72;86.12;102419.47;7396360;19;20390;-64
2024/01/13 03:03:49;;;;;;;8.00;2.42;;;;;;;4.71;86.26;102416.91;7397874;19;20015;-63
2024/01/13 03:06:22;;;;;;;7.75;2.50;;;;;;;4.73;86.54;102420.34;7396065;19;20022;-64
2024/01/13 03:08:54;;;;;;;7.18;2.35;;;;;;;4.64;86.26;102422.28;7396806;19;20018;-63
2024/01/13 03:11:23;;;;;;;8.13;2.60;;;;;;;4.55;87.18;102432.13;7398043;19;20097;-62
2024/01/13 03:13:55;;;;;;;7.10;2.20;;;;;;;4.54;87.24;102419.88;7397938;19;20022;-61
2024/01/13 03:16:23;;;;;;;6.85;2.67;;;;;;;4.58;87.30;102417.19;7398006;19;20103;-61
2024/01/13 03:18:51;;;;;;;6.85;2.33;;;;;;;4.61;86.86;102413.59;7394808;19;20054;-64
2024/01/13 03:21:20;;;;;;;5.90;2.33;;;;;;;4.52;87.09;102417.31;7397794;19;20500;-61
2024/01/13 03:23:48;;;;;;;6.47;2.35;;;;;;;4.50;87.08;102407.72;7397612;19;20022;-58
2024/01/13 03:26:16;;;;;;;8.57;2.72;;;;;;;4.64;86.97;102403.91;7395541;19;20031;-60
2024/01/13 03:28:44;;;;;;;8.52;2.10;;;;;;;4.53;86.36;102368.31;7396039;19;20046;-62
2024/01/13 03:31:13;;;;;;;7.80;2.33;;;;;;;4.60;86.64;102378.63;7395448;19;20043;-60
2024/01/13 03:33:45;;;;;;;7.88;2.58;;;;;;;4.63;86.17;102375.09;7397762;19;20025;-61
2024/01/13 03:36:16;;;;;;;6.50;2.25;;;;;;;4.64;86.04;102374.19;7396960;19;20026;-62
2024/01/13 03:38:46;;;;;;;5.78;2.28;;;;;;;4.57;86.36;102364.72;7396637;19;20117;-62
2024/01/13 03:41:17;;;;;;;6.85;3.20;;;;;;;4.64;86.32;102375.03;7396864;19;20479;-61
2024/01/13 03:43:45;;;;;;;7.72;2.80;;;;;;;4.56;86.38;102357.75;7397788;19;20702;-59
2024/01/13 03:46:13;;;;;;;10.13;3.17;;;;;;;4.70;86.06;102355.69;7393759;19;20019;-59
2024/01/13 03:48:42;;;;;;;8.27;2.80;;;;;;;4.66;85.91;102343.53;7395349;19;20363;-59
2024/01/13 03:51:10;;;;;;;5.97;2.10;;;;;;;4.68;85.80;102354.84;7394654;19;20014;-58
2024/01/13 03:53:39;;;;;;;5.40;1.80;;;;;;;4.72;85.81;102364.38;7396920;19;20022;-59
2024/01/13 03:56:08;;;;;;;5.53;2.03;;;;;;;4.63;86.05;102367.22;7396921;19;20077;-59
2024/01/13 03:58:38;;;;;;;3.80;1.88;;;;;;;4.56;86.26;102361.25;7396124;19;20379;-59
2024/01/13 04:01:08;;;;;;;3.97;1.90;;;;;;;4.67;85.79;102358.38;7396396;19;20022;-59
2024/01/13 04:03:37;;;;;;;5.43;2.20;;;;;;;4.63;85.83;102354.97;7396215;19;20026;-61
2024/01/13 04:06:05;;;;;;;5.75;2.22;;;;;;;4.70;86.16;102358.31;7394626;19;20021;-61
2024/01/13 04:08:34;;;;;;;3.95;2.00;;;;;;;4.64;86.09;102356.69;7395144;19;20026;-61
2024/01/13 04:11:09;;;;;;;4.03;1.95;;;;;;;4.54;86.53;102354.28;7395406;19;20023;-61
2024/01/13 04:13:38;;;;;;;6.35;2.00;;;;;;;4.57;86.92;102362.97;7395459;19;20018;-60
2024/01/13 04:16:07;;;;;;;5.40;2.10;;;;;;;4.55;86.57;102369.16;7395569;19;20026;-60
2024/01/13 04:18:38;;;;;;;3.90;1.63;;;;;;;4.61;86.30;102351.50;7395458;19;20022;-60
2024/01/13 04:21:07;;;;;;;4.05;1.95;;;;;;;4.61;86.01;102353.25;7395414;19;20078;-63
2024/01/13 04:23:50;;;;;;;3.65;1.77;;;;;;;4.60;86.15;102352.41;7396224;19;20024;-63
2024/01/13 04:26:20;;;;;;;3.63;1.52;;;;;;;4.61;86.24;102342.75;7392482;19;20010;-63
2024/01/13 04:28:48;;;;;;;3.60;1.50;;;;;;;4.66;85.69;102345.31;7394416;19;20043;-62
2024/01/13 04:31:16;;;;;;;2.22;1.60;;;;;;;4.63;85.95;102339.22;7395049;19;20018;-63
2024/01/13 04:33:44;;;;;;;4.53;2.00;;;;;;;4.63;86.35;102323.47;7394963;19;20467;-65
2024/01/13 04:36:13;;;;;;;3.05;1.58;;;;;;;4.67;86.49;102326.03;7394961;19;20094;-63
2024/01/13 04:38:41;;;;;;;3.15;1.60;;;;;;;4.71;86.21;102335.56;7394095;19;20018;-64
2024/01/13 04:41:09;;;;;;;3.67;1.90;;;;;;;4.62;86.70;102332.25;7394392;19;20219;-63
2024/01/13 04:43:39;;;;;;;3.38;1.73;;;;;;;4.67;86.46;102326.03;7394160;19;20019;-60
2024/01/13 04:46:08;;;;;;;3.90;1.60;;;;;;;4.74;86.35;102333.72;7394283;19;20106;-59
2024/01/13 04:48:36;;;;;;;3.15;1.50;;;;;;;4.70;86.17;102336.47;7393956;19;20022;-60
2024/01/13 04:51:05;;;;;;;3.95;1.67;;;;;;;4.65;86.37;102331.31;7394232;19;20051;-62
2024/01/13 04:53:33;;;;;;;4.90;1.80;;;;;;;4.66;86.58;102327.81;7394477;19;20007;-62
2024/01/13 04:56:01;;;;;;;3.30;1.80;;;;;;;4.58;86.32;102325.34;7392745;19;20018;-62
2024/01/13 04:58:29;;;;;;;4.60;1.60;;;;;;;4.52;86.73;102309.75;7393382;19;20014;-60
2024/01/13 05:00:57;;;;;;;2.28;1.42;;;;;;;4.62;85.94;102323.53;7393675;19;20061;-60
2024/01/13 05:03:25;;;;;;;2.33;1.38;;;;;;;4.63;86.63;102325.25;7392617;19;20034;-58
2024/01/13 05:05:54;;;;;;;3.28;1.50;;;;;;;4.54;86.86;102317.56;7393317;19;20097;-59
2024/01/13 05:08:22;;;;;;;2.13;1.30;;;;;;;4.57;86.61;102317.50;7393758;19;20019;-59
2024/01/13 05:10:50;;;;;;;4.47;1.60;;;;;;;4.61;86.70;102311.28;7393539;19;20073;-59
2024/01/13 05:13:18;;;;;;;2.22;1.52;;;;;;;4.57;86.90;102315.75;7394204;19;20014;-59
2024/01/13 05:15:46;;;;;;;4.40;1.85;;;;;;;4.67;86.85;102313.78;7393303;19;20022;-58
2024/01/13 05:18:14;;;;;;;2.55;1.67;;;;;;;4.69;86.37;102319.84;7393486;19;20488;-59
2024/01/13 05:20:42;;;;;;;3.38;1.73;;;;;;;4.54;86.73;102302.72;7393162;19;20014;-61
2024/01/13 05:23:10;;;;;;;2.30;1.50;;;;;;;4.57;86.53;102292.13;7393333;19;20015;-61
2024/01/13 05:25:39;;;;;;;3.17;1.70;;;;;;;4.66;86.56;102288.44;7393224;19;20010;-62
2024/01/13 05:28:09;;;;;;;3.10;1.75;;;;;;;4.74;86.18;102285.63;7393771;19;20038;-61
2024/01/13 05:30:37;;;;;;;3.20;1.70;;;;;;;4.59;85.93;102274.59;7390958;19;20014;-59
2024/01/13 05:33:05;;;;;;;3.17;1.50;;;;;;;4.59;86.11;102279.84;7392398;19;20019;-61
2024/01/13 05:35:33;;;;;;;4.28;1.52;;;;;;;4.66;86.25;102275.31;7392250;19;20019;-61
2024/01/13 05:38:01;;;;;;;2.85;1.60;;;;;;;4.61;86.32;102272.78;7393571;19;20023;-62
2024/01/13 05:40:29;;;;;;;2.58;1.65;;;;;;;4.55;86.39;102267.72;7389765;19;20019;-61
2024/01/13 05:42:57;;;;;;;2.58;1.58;;;;;;;4.58;86.21;102258.91;7393465;19;20021;-60
2024/01/13 05:45:25;;;;;;;4.38;1.67;;;;;;;4.63;86.13;102254.41;7392620;19;20011;-60
2024/01/13 05:47:53;;;;;;;3.05;1.50;;;;;;;4.56;86.04;102235.31;7392966;19;20069;-61
2024/01/13 05:50:21;;;;;;;3.03;1.60;;;;;;;4.70;85.85;102244.63;7390321;19;20086;-61
2024/01/13 05:52:49;;;;;;;3.35;1.70;;;;;;;4.66;85.50;102235.13;7392464;19;20031;-59
2024/01/13 05:55:17;;;;;;;2.05;1.40;;;;;;;4.58;86.07;102227.44;7392903;19;20371;-60
2024/01/13 05:57:48;;;;;;;2.97;1.60;;;;;;;4.70;85.82;102211.38;7396810;19;20026;-62
2024/01/13 06:00:16;;;;;;;3.50;1.50;;;;;;;4.70;85.64;102206.13;7390584;19;20019;-61
2024/01/13 06:02:45;;;;;;;3.22;1.38;;;;;;;4.62;85.28;102210.72;7392729;19;20031;-61
2024/01/13 06:05:13;;;;;;;2.35;1.20;;;;;;;4.61;85.88;102201.09;7392658;19;20022;-60
2024/01/13 06:07:42;;;;;;;2.67;1.20;;;;;;;4.55;86.08;102206.53;7390634;19;20490;-63
2024/01/13 06:10:11;;;;;;;2.72;1.77;;;;;;;4.56;85.95;102195.97;7389764;19;20393;-61
2024/01/13 06:12:39;;;;;;;2.78;1.83;;;;;;;4.61;85.57;102186.22;7390787;19;20030;-62
2024/01/13 06:15:08;;;;;;;2.22;1.50;;;;;;;4.61;85.68;102188.84;7391566;19;20025;-62
2024/01/13 06:17:36;;;;;;;2.28;1.50;;;;;;;4.63;85.93;102180.94;7390978;19;20074;-61
2024/01/13 06:20:04;;;;;;;5.43;1.70;;;;;;;4.53;85.83;102171.59;7390466;19;20021;-63
2024/01/13 06:22:32;;;;;;;4.82;1.83;;;;;;;4.59;86.13;102176.69;7393298;19;20015;-62
2024/01/13 06:25:00;;;;;;;3.80;2.03;;;;;;;4.64;85.63;102178.28;7390535;19;20384;-62
2024/01/13 06:27:29;;;;;;;3.95;1.83;;;;;;;4.61;85.66;102170.47;7390651;19;20124;-61
2024/01/13 06:29:57;;;;;;;4.85;1.80;;;;;;;4.51;85.88;102168.16;7391484;19;20014;-60
2024/01/13 06:32:25;;;;;;;1.88;1.27;;;;;;;4.55;85.79;102168.03;7394978;19;20078;-62
2024/01/13 06:34:53;;;;;;;2.78;1.33;;;;;;;4.56;85.57;102161.00;7391817;19;20018;-65
2024/01/13 06:37:21;;;;;;;3.25;1.20;;;;;;;4.67;85.32;102168.59;7391656;19;20035;-64
2024/01/13 06:39:49;;;;;;;2.55;1.10;;;;;;;4.66;85.63;102170.38;7389242;19;20088;-65
2024/01/13 06:42:17;;;;;;;1.95;0.70;;;;;;;4.57;85.17;102158.34;7390738;19;20011;-63
2024/01/13 06:44:45;;;;;;;1.83;0.88;;;;;;;4.57;85.51;102145.22;7391071;19;20015;-63
2024/01/13 06:47:13;;;;;;;4.20;1.20;;;;;;;4.53;85.82;102146.22;7389948;19;20015;-61
2024/01/13 06:49:41;;;;;;;1.98;1.00;;;;;;;4.64;85.22;102132.81;7389969;19;20015;-61
2024/01/13 06:52:12;;;;;;;3.30;1.00;;;;;;;4.63;85.18;102131.97;7387982;19;20091;-61
2024/01/13 06:54:41;;;;;;;2.40;0.90;;;;;;;4.74;85.04;102130.81;7390844;19;20017;-61
2024/01/13 06:57:08;;;;;;;1.85;1.00;;;;;;;4.75;85.37;102128.13;7390296;19;20023;-61
2024/01/13 06:59:37;;;;;;;1.88;1.05;;;;;;;4.64;85.32;102117.06;7389036;19;20015;-61
2024/01/13 07:02:05;;;;;;;1.77;1.00;;;;;;;4.70;85.63;102121.31;7390593;19;20042;-61
2024/01/13 07:04:37;;;;;;;4.32;1.10;;;;;;;4.71;85.73;102108.13;7390472;19;20022;-61
2024/01/13 07:07:05;;;;;;;2.25;0.90;;;;;;;4.71;85.33;102115.16;7390141;19;20367;-60
2024/01/13 07:09:33;;;;;;;2.38;1.27;;;;;;;4.72;85.26;102116.88;7388344;19;20043;-61
2024/01/13 07:12:01;;;;;;;4.75;1.10;;;;;;;4.66;85.63;102103.94;7390774;19;20018;-60
2024/01/13 07:14:31;;;;;;;2.83;1.10;;;;;;;4.58;85.75;102086.63;7390270;19;20018;-60
2024/01/13 07:16:59;;;;;;;1.80;0.93;;;;;;;4.62;86.06;102093.50;7390119;19;20092;-60
2024/01/13 07:19:27;;;;;;;2.63;1.30;;;;;;;4.71;85.63;102081.03;7388314;19;20018;-59
2024/01/13 07:21:55;;;;;;;6.38;1.30;;;;;;;4.59;85.30;102075.22;7390995;19;20015;-60
2024/01/13 07:24:24;;;;;;;2.63;1.27;;;;;;;4.62;85.81;102088.25;7390348;19;20023;-61
2024/01/13 07:26:52;;;;;;;2.75;1.13;;;;;;;4.59;86.19;102100.59;7395418;19;20018;-60
2024/01/13 07:29:21;;;;;;;2.10;1.08;;;;;;;4.58;86.48;102096.28;7395586;19;20044;-61
2024/01/13 07:31:49;;;;;;;3.38;1.25;;;;;;;4.50;86.02;102080.75;7397415;19;20042;-60
2024/01/13 07:34:17;;;;;;;4.22;1.20;;;;;;;4.58;86.21;102093.66;7395975;19;20052;-61
2024/01/13 07:36:45;;;;;;;2.63;1.23;;;;;;;4.58;86.06;102094.50;7396514;19;20029;-60
2024/01/13 07:39:14;;;;;;;4.88;1.40;;;;;;;4.58;85.76;102106.75;7394872;19;20484;-61
2024/01/13 07:41:43;;;;;;;1.92;1.00;;;;;;;4.53;86.33;102099.00;7396964;19;20014;-61
2024/01/13 07:44:11;;;;;;;3.50;1.10;;;;;;;4.52;87.05;102088.56;7396935;19;20035;-60
2024/01/13 07:46:41;;;;;;;2.30;1.10;;;;;;;4.57;86.50;102084.88;7396154;19;20086;-61
2024/01/13 07:49:09;;;;;;;2.58;1.25;;;;;;;4.63;86.44;102089.97;7394924;19;20022;-61
2024/01/13 07:51:37;;;;;;;2.70;1.40;;;;;;;4.57;86.49;102076.16;7396877;19;20010;-61
2024/01/13 07:54:06;;;;;;;3.08;1.35;;;;;;;4.67;86.32;102082.03;7396137;19;20486;-60
2024/01/13 07:56:35;;;;;;;3.05;1.33;;;;;;;4.57;86.56;102063.91;7396629;19;20022;-60
2024/01/13 07:59:04;;;;;;;2.42;1.33;;;;;;;4.51;86.12;102037.84;7394857;19;20511;-60
2024/01/13 08:01:32;;;;;;;2.38;1.23;;;;;;;4.62;86.05;102058.56;7395768;19;20026;-60
2024/01/13 08:04:07;;;;;;;2.17;1.10;;;;;;;4.75;85.75;102078.28;7395055;19;20466;-60
2024/01/13 08:06:35;;;;;;;2.70;1.10;;;;;;;4.75;85.26;102080.06;7395249;19;20014;-60
2024/01/13 08:09:04;;;;;;;3.08;1.30;;;;;;;4.71;85.70;102071.41;7393986;19;20401;-60
2024/01/13 08:11:32;;;;;;;2.92;1.38;;;;;;;4.80;85.43;102062.41;7393794;19;20090;-62
2024/01/13 08:14:08;;;;;;;3.22;1.13;;;;;;;4.76;85.73;102066.88;7395425;19;20024;-61
2024/01/13 08:16:36;;;;;;;4.15;1.30;;;;;;;4.70;85.80;102060.97;7394418;19;20378;-62
2024/01/13 08:19:04;;;;;;;2.60;1.20;;;;;;;4.68;85.90;102042.63;7393797;19;20022;-61
2024/01/13 08:21:32;;;;;;;3.67;1.35;;;;;;;4.70;85.83;102048.69;7393253;19;20023;-60
2024/01/13 08:24:10;;;;;;;2.05;1.10;;;;;;;4.67;86.08;102048.78;7394672;19;20412;-62
2024/01/13 08:26:39;;;;;;;1.92;1.23;;;;;;;4.73;86.00;102039.84;7393462;19;20014;-59
2024/01/13 08:29:09;;;;;;;2.95;1.38;;;;;;;4.75;85.85;102048.56;7393574;19;20369;-60
2024/01/13 08:31:37;;;;;;;3.55;1.40;;;;;;;4.76;85.58;102042.41;7395135;19;20093;-59
2024/01/13 08:34:08;;;;;;;2.92;1.50;;;;;;;4.64;85.76;102033.13;7395007;19;20023;-60
2024/01/13 08:36:38;;;;;;;3.17;1.50;;;;;;;4.75;86.19;102025.81;7392037;19;20317;-59
2024/01/13 08:39:07;;;;;;;3.13;1.48;;;;;;;4.69;85.94;102031.22;7392808;19;20010;-59
2024/01/13 08:41:35;;;;;;;2.88;1.30;;;;;;;4.66;86.31;102012.09;7394348;19;20081;-60
2024/01/13 08:44:03;;;;;;;1.80;1.02;;;;;;;4.70;85.99;102013.72;7394876;19;20359;-60
2024/01/13 08:46:32;;;;;;;1.67;1.00;;;;;;;4.63;86.29;102003.41;7394315;19;20025;-60
2024/01/13 08:49:00;;;;;;;1.88;1.20;;;;;;;4.57;86.21;102003.56;7393268;19;20022;-59
2024/01/13 08:51:29;;;;;;;3.05;1.08;;;;;;;4.57;86.87;102010.59;7392978;19;20019;-59
2024/01/13 08:54:03;;;;;;;2.72;1.40;;;;;;;4.62;86.81;101991.19;7394274;19;20022;-60
2024/01/13 08:56:38;;;;;;;2.80;1.40;;;;;;;4.67;86.24;101991.06;7395987;19;20015;-60
2024/01/13 08:59:11;;;;;;;2.88;1.38;;;;;;;4.81;85.67;101978.41;7392661;19;20029;-61
2024/01/13 09:01:39;;;;;;;3.60;1.50;;;;;;;4.82;85.91;101967.00;7393956;19;20263;-60
2024/01/13 09:04:09;;;;;;;2.75;1.33;;;;;;;4.83;85.85;101970.47;7393710;19;20025;-61
2024/01/13 09:06:40;;;;;;;2.47;1.30;;;;;;;4.82;85.79;101961.75;7394074;19;20078;-60
2024/01/13 09:09:09;;;;;;;3.83;1.40;;;;;;;4.81;85.94;101962.66;7392019;19;20039;-59
2024/01/13 09:11:41;;;;;;;2.35;1.25;;;;;;;4.82;86.35;101966.13;7393589;19;20769;-60
2024/01/13 09:14:11;;;;;;;;;;;;;;;4.70;86.53;101977.00;7393635;19;20019;-59
2024/01/13 09:16:43;;;;;;;1.73;1.10;;;;;;;4.74;86.63;101976.00;7392728;19;19926;-60
2024/01/13 09:19:11;;;;;;;1.90;1.00;;;;;;;4.80;86.38;101968.78;7390042;19;20098;-60
2024/01/13 09:21:41;;;;;;;3.63;1.50;;;;;;;4.72;86.31;101972.56;7393647;19;20018;-59
2024/01/13 09:24:16;;;;;;;5.72;2.60;;;;;;;4.77;86.57;101961.03;7393407;19;20018;-59
2024/01/13 09:26:45;;;;;;;5.68;2.53;;;;;;;4.82;86.41;101968.75;7394955;19;20018;-56
2024/01/13 09:29:17;;;;;;;3.63;1.65;;;;;;;4.78;86.55;101968.00;7391467;19;20348;-58
2024/01/13 09:31:49;;;;;;;3.65;1.40;;;;;;;4.94;85.89;101959.66;7393186;19;20022;-61
2024/01/13 09:34:20;;;;;;;3.15;1.25;;;;;;;4.93;85.70;101953.53;7393005;19;20094;-60
2024/01/13 09:36:49;;;;;;;1.88;1.20;;;;;;;4.89;85.82;101952.78;7392406;19;20399;-61
2024/01/13 09:39:20;;;;;;;15.48;4.28;;;;;;;4.81;85.84;101936.41;7391661;19;20029;-60
2024/01/13 09:41:53;;;;;;;7.43;1.60;;;;;;;5.18;85.41;101947.50;7392671;19;20658;-61
2024/01/13 09:44:30;;;;;;;6.75;1.90;;;;;;;5.08;85.01;101949.59;7392494;19;20022;-61
2024/01/13 09:47:01;;;;;;;2.63;1.10;;;;;;;4.97;85.35;101944.66;7391756;19;20098;-61
2024/01/13 09:49:30;;;;;;;3.25;1.05;;;;;;;5.03;85.27;101946.22;7389452;19;20094;-60
2024/01/13 09:52:05;;;;;;;3.38;1.20;;;;;;;4.99;85.12;101932.34;7391686;19;20011;-60
2024/01/13 09:54:35;;;;;;;1.67;1.20;;;;;;;5.03;84.96;101931.34;7396622;19;20034;-60
2024/01/13 09:57:04;;;;;;;2.85;1.27;;;;;;;4.97;85.26;101921.03;7395083;19;20015;-60
2024/01/13 09:59:32;;;;;;;1.92;1.20;;;;;;;5.07;85.02;101937.34;7390600;19;20015;-59
2024/01/13 10:02:02;;;;;;;3.40;1.30;;;;;;;5.02;84.96;101950.63;7392075;19;20104;-60
2024/01/13 10:04:36;;;;;;;4.88;1.77;;;;;;;5.00;85.21;101952.44;7391372;19;20421;-61
2024/01/13 10:07:08;;;;;;;3.50;1.70;;;;;;;5.01;85.25;101953.31;7391237;19;20025;-60
2024/01/13 10:09:40;;;;;;;3.97;2.17;;;;;;;5.04;85.26;101946.19;7389949;19;20471;-60
2024/01/13 10:12:08;;;;;;;5.18;2.40;;;;;;;4.98;85.41;101951.63;7391104;19;20089;-61
2024/01/13 10:14:42;;;;;;;5.07;2.25;;;;;;;5.06;85.34;101952.25;7391278;19;20018;-61
2024/01/13 10:17:11;;;;;;;6.50;2.63;;;;;;;5.09;85.32;101946.03;7390795;19;20022;-60
2024/01/13 10:19:42;;;;;;;6.15;2.60;;;;;;;5.03;85.05;101938.34;7389339;19;20022;-61
2024/01/13 10:22:15;;;;;;;6.70;2.88;;;;;;;5.00;85.75;101923.56;7391174;19;20014;-61
2024/01/13 10:24:44;;;;;;;7.50;3.13;;;;;;;4.98;85.46;101925.38;7391236;19;20176;-60
2024/01/13 10:27:12;;;;;;;9.60;3.72;;;;;;;4.96;85.46;101927.22;7393720;19;20733;-60
2024/01/13 10:29:42;;;;;;;9.35;4.38;;;;;;;4.99;85.41;101907.84;7387742;19;20047;-59
2024/01/13 10:32:12;;;;;;;11.27;4.65;;;;;;;5.12;85.25;101907.44;7391617;19;20026;-58
2024/01/13 10:34:47;;;;;;;11.43;5.20;;;;;;;5.05;85.24;101891.94;7390686;19;20022;-59
2024/01/13 10:37:17;;;;;;;11.02;5.93;;;;;;;5.13;84.44;101896.00;7391819;19;20401;-59
2024/01/13 10:39:45;;;;;;;13.65;6.22;;;;;;;5.07;84.58;101896.19;7390005;19;20011;-59
2024/01/13 10:42:15;;;;;;;12.05;6.22;;;;;;;5.08;84.87;101890.06;7391350;19;20521;-59
2024/01/13 10:44:57;;;;;;;13.18;5.97;;;;;;;5.13;84.85;101877.63;7391410;19;20014;-59
2024/01/13 10:47:31;;;;;;;13.85;6.72;;;;;;;5.04;85.42;101880.56;7390555;19;20022;-60
2024/01/13 10:49:59;;;;;;;13.50;7.28;;;;;;;5.03;85.64;101877.97;7386753;19;20039;-60
2024/01/13 10:52:54;;;;;;;17.60;8.27;;;;;;;5.13;85.22;101888.13;7389046;19;20751;-60
2024/01/13 10:55:24;;;;;;;13.98;7.32;;;;;;;4.97;85.90;101875.56;7390443;19;20019;-61
2024/01/13 10:57:53;;;;;;;13.77;7.30;;;;;;;5.01;86.28;101875.41;7394195;19;20023;-60
2024/01/13 11:00:21;;;;;;;17.23;8.55;;;;;;;4.96;86.40;101873.81;7390936;19;20023;-59
2024/01/13 11:02:50;;;;;;;16.33;8.57;;;;;;;4.99;86.38;101865.84;7397504;19;20125;-60
2024/01/13 11:05:22;;;;;;;20.00;9.32;;;;;;;5.02;86.07;101863.16;7396867;19;20491;-60
2024/01/13 11:07:50;;;;;;;17.85;9.07;;;;;;;5.09;85.97;101852.38;7397291;19;20014;-60
2024/01/13 11:10:25;;;;;;;19.17;10.05;;;;;;;5.18;85.65;101856.47;7394419;19;20015;-59
2024/01/13 11:13:27;;;;;;;17.98;10.10;;;;;;;5.19;85.37;101838.94;7399836;19;20029;-59
2024/01/13 11:16:08;;;;;;;18.50;10.57;;;;;;;5.19;85.99;101841.56;7396885;19;20026;-60
2024/01/13 11:18:37;;;;;;;17.88;11.02;;;;;;;5.11;86.14;101829.59;7396461;19;20037;-60
2024/01/13 11:21:07;;;;;;;19.13;11.07;;;;;;;5.20;86.51;101824.94;7395713;19;20019;-60
2024/01/13 11:23:45;;;;;;;18.63;11.60;;;;;;;5.20;85.85;101794.28;7396910;19;20078;-59
2024/01/13 11:26:19;;;;;;;19.23;11.13;;;;;;;5.28;86.07;101810.63;7397826;19;20022;-60
2024/01/13 11:28:52;;;;;;;20.13;11.60;;;;;;;5.24;85.72;101797.66;7395210;19;20048;-58
2024/01/13 11:31:32;;;;;;;17.88;10.57;;;;;;;5.24;85.70;101787.16;7396343;19;20375;-60
2024/01/13 11:34:17;;;;;;;17.88;10.82;;;;;;;5.28;86.14;101796.63;7395865;19;20434;-60
2024/01/13 11:36:56;;;;;;;21.48;12.00;;;;;;;5.24;85.73;101803.75;7396677;19;20026;-59
2024/01/13 11:39:24;;;;;;;23.10;12.63;;;;;;;5.21;85.81;101782.84;7392735;19;20010;-58
2024/01/13 11:41:58;;;;;;;24.17;11.85;;;;;;;5.26;85.60;101788.78;7395679;19;20391;-58
2024/01/13 11:44:35;;;;;;;22.80;12.43;;;;;;;5.37;85.40;101778.75;7396115;19;20014;-57